sensor_id;sensor_type;location;lat;lon;timestamp;P1;durP1;ratioP1;P2;durP2;ratioP2
77136;SDS011;66102;48.542;-2.970;2023-05-10T00:01:12;15.68;;;3.50;;
77136;SDS011;66102;48.542;-2.970;2023-05-10T00:03:38;20.17;;;3.78;;
77136;SDS011;66102;48.542;-2.970;2023-05-10T00:06:05;19.52;;;3.95;;
77136;SDS011;66102;48.542;-2.970;2023-05-10T00:08:31;17.63;;;3.10;;
77136;SDS011;66102;48.542;-2.970;2023-05-10T00:10:57;13.40;;;3.10;;
77136;SDS011;66102;48.542;-2.970;2023-05-10T00:13:23;14.88;;;3.15;;
77136;SDS011;66102;48.542;-2.970;2023-05-10T00:15:49;23.65;;;3.38;;
77136;SDS011;66102;48.542;-2.970;2023-05-10T00:18:15;21.35;;;3.95;;
77136;SDS011;66102;48.542;-2.970;2023-05-10T00:20:41;18.38;;;3.42;;
77136;SDS011;66102;48.542;-2.970;2023-05-10T00:23:07;22.73;;;4.10;;
77136;SDS011;66102;48.542;-2.970;2023-05-10T00:25:33;15.98;;;2.83;;
77136;SDS011;66102;48.542;-2.970;2023-05-10T00:27:59;23.17;;;4.10;;
77136;SDS011;66102;48.542;-2.970;2023-05-10T00:30:26;18.23;;;3.97;;
77136;SDS011;66102;48.542;-2.970;2023-05-10T00:32:52;15.23;;;2.55;;
77136;SDS011;66102;48.542;-2.970;2023-05-10T00:35:18;18.45;;;3.92;;
77136;SDS011;66102;48.542;-2.970;2023-05-10T00:37:45;24.40;;;3.50;;
77136;SDS011;66102;48.542;-2.970;2023-05-10T00:40:11;20.30;;;3.60;;
77136;SDS011;66102;48.542;-2.970;2023-05-10T00:42:37;20.63;;;3.72;;
77136;SDS011;66102;48.542;-2.970;2023-05-10T00:45:03;19.23;;;2.67;;
77136;SDS011;66102;48.542;-2.970;2023-05-10T00:47:29;17.83;;;3.58;;
77136;SDS011;66102;48.542;-2.970;2023-05-10T00:49:55;21.00;;;4.20;;
77136;SDS011;66102;48.542;-2.970;2023-05-10T00:52:21;17.20;;;3.13;;
77136;SDS011;66102;48.542;-2.970;2023-05-10T00:54:49;17.52;;;3.10;;
77136;SDS011;66102;48.542;-2.970;2023-05-10T00:57:15;18.65;;;2.78;;
77136;SDS011;66102;48.542;-2.970;2023-05-10T00:59:41;21.48;;;3.47;;
77136;SDS011;66102;48.542;-2.970;2023-05-10T01:02:07;17.10;;;3.40;;
77136;SDS011;66102;48.542;-2.970;2023-05-10T01:04:33;15.73;;;2.70;;
77136;SDS011;66102;48.542;-2.970;2023-05-10T01:07:00;21.55;;;3.65;;
77136;SDS011;66102;48.542;-2.970;2023-05-10T01:09:26;16.13;;;3.15;;
77136;SDS011;66102;48.542;-2.970;2023-05-10T01:11:53;17.42;;;3.15;;
77136;SDS011;66102;48.542;-2.970;2023-05-10T01:14:20;15.02;;;3.50;;
77136;SDS011;66102;48.542;-2.970;2023-05-10T01:16:46;30.55;;;3.20;;
77136;SDS011;66102;48.542;-2.970;2023-05-10T01:19:18;17.05;;;3.25;;
77136;SDS011;66102;48.542;-2.970;2023-05-10T01:30:01;12.70;;;3.05;;
77136;SDS011;66102;48.542;-2.970;2023-05-10T01:32:53;16.13;;;3.03;;
77136;SDS011;66102;48.542;-2.970;2023-05-10T01:35:20;15.07;;;3.58;;
77136;SDS011;66102;48.542;-2.970;2023-05-10T01:37:50;20.60;;;3.58;;
77136;SDS011;66102;48.542;-2.970;2023-05-10T01:42:46;16.10;;;3.45;;
77136;SDS011;66102;48.542;-2.970;2023-05-10T01:45:16;14.68;;;3.17;;
77136;SDS011;66102;48.542;-2.970;2023-05-10T01:47:44;17.65;;;3.20;;
77136;SDS011;66102;48.542;-2.970;2023-05-10T01:50:17;12.07;;;2.90;;
77136;SDS011;66102;48.542;-2.970;2023-05-10T01:52:44;18.10;;;3.38;;
77136;SDS011;66102;48.542;-2.970;2023-05-10T01:55:14;17.45;;;3.60;;
77136;SDS011;66102;48.542;-2.970;2023-05-10T01:57:42;19.40;;;3.10;;
77136;SDS011;66102;48.542;-2.970;2023-05-10T02:00:09;15.88;;;2.42;;
77136;SDS011;66102;48.542;-2.970;2023-05-10T02:02:37;16.98;;;3.47;;
77136;SDS011;66102;48.542;-2.970;2023-05-10T02:05:06;23.98;;;3.78;;
77136;SDS011;66102;48.542;-2.970;2023-05-10T02:07:34;21.33;;;3.60;;
77136;SDS011;66102;48.542;-2.970;2023-05-10T02:10:01;22.27;;;3.50;;
77136;SDS011;66102;48.542;-2.970;2023-05-10T02:12:28;19.27;;;3.38;;
77136;SDS011;66102;48.542;-2.970;2023-05-10T02:14:54;14.00;;;2.58;;
77136;SDS011;66102;48.542;-2.970;2023-05-10T02:17:21;13.90;;;2.92;;
77136;SDS011;66102;48.542;-2.970;2023-05-10T02:19:48;21.95;;;3.72;;
77136;SDS011;66102;48.542;-2.970;2023-05-10T02:22:15;17.98;;;3.30;;
77136;SDS011;66102;48.542;-2.970;2023-05-10T02:24:41;19.65;;;2.90;;
77136;SDS011;66102;48.542;-2.970;2023-05-10T02:27:08;20.50;;;3.50;;
77136;SDS011;66102;48.542;-2.970;2023-05-10T02:29:35;17.85;;;2.70;;
77136;SDS011;66102;48.542;-2.970;2023-05-10T02:32:02;22.15;;;3.85;;
77136;SDS011;66102;48.542;-2.970;2023-05-10T02:34:28;15.23;;;4.10;;
77136;SDS011;66102;48.542;-2.970;2023-05-10T02:36:55;13.85;;;2.88;;
77136;SDS011;66102;48.542;-2.970;2023-05-10T02:39:22;21.95;;;3.67;;
77136;SDS011;66102;48.542;-2.970;2023-05-10T02:41:48;16.42;;;2.67;;
77136;SDS011;66102;48.542;-2.970;2023-05-10T02:44:15;17.38;;;3.15;;
77136;SDS011;66102;48.542;-2.970;2023-05-10T02:46:43;17.92;;;3.83;;
77136;SDS011;66102;48.542;-2.970;2023-05-10T02:49:09;21.15;;;2.60;;
77136;SDS011;66102;48.542;-2.970;2023-05-10T02:51:35;15.88;;;2.70;;
77136;SDS011;66102;48.542;-2.970;2023-05-10T02:54:04;21.05;;;3.13;;
77136;SDS011;66102;48.542;-2.970;2023-05-10T02:56:33;12.63;;;2.50;;
77136;SDS011;66102;48.542;-2.970;2023-05-10T02:59:00;19.10;;;2.70;;
77136;SDS011;66102;48.542;-2.970;2023-05-10T03:01:26;18.85;;;3.55;;
77136;SDS011;66102;48.542;-2.970;2023-05-10T03:03:52;16.90;;;2.75;;
77136;SDS011;66102;48.542;-2.970;2023-05-10T03:06:19;18.02;;;2.50;;
77136;SDS011;66102;48.542;-2.970;2023-05-10T03:08:45;15.80;;;3.45;;
77136;SDS011;66102;48.542;-2.970;2023-05-10T03:16:29;16.90;;;2.80;;
77136;SDS011;66102;48.542;-2.970;2023-05-10T03:19:22;16.08;;;3.65;;
77136;SDS011;66102;48.542;-2.970;2023-05-10T03:21:47;24.25;;;3.38;;
77136;SDS011;66102;48.542;-2.970;2023-05-10T03:24:16;14.77;;;2.80;;
77136;SDS011;66102;48.542;-2.970;2023-05-10T03:26:43;14.02;;;2.90;;
77136;SDS011;66102;48.542;-2.970;2023-05-10T03:29:11;12.50;;;2.85;;
77136;SDS011;66102;48.542;-2.970;2023-05-10T03:31:38;20.33;;;3.55;;
77136;SDS011;66102;48.542;-2.970;2023-05-10T03:34:04;16.23;;;3.28;;
77136;SDS011;66102;48.542;-2.970;2023-05-10T03:36:31;15.40;;;2.70;;
77136;SDS011;66102;48.542;-2.970;2023-05-10T03:38:57;19.30;;;3.22;;
77136;SDS011;66102;48.542;-2.970;2023-05-10T03:41:23;16.70;;;3.05;;
77136;SDS011;66102;48.542;-2.970;2023-05-10T03:43:50;15.20;;;2.85;;
77136;SDS011;66102;48.542;-2.970;2023-05-10T03:46:16;15.02;;;3.35;;
77136;SDS011;66102;48.542;-2.970;2023-05-10T03:48:42;19.13;;;3.25;;
77136;SDS011;66102;48.542;-2.970;2023-05-10T03:51:08;20.98;;;3.58;;
77136;SDS011;66102;48.542;-2.970;2023-05-10T03:53:34;17.95;;;3.13;;
77136;SDS011;66102;48.542;-2.970;2023-05-10T03:56:00;22.80;;;3.67;;
77136;SDS011;66102;48.542;-2.970;2023-05-10T03:58:26;15.82;;;3.00;;
77136;SDS011;66102;48.542;-2.970;2023-05-10T04:00:52;17.77;;;3.03;;
77136;SDS011;66102;48.542;-2.970;2023-05-10T04:03:18;16.60;;;2.78;;
77136;SDS011;66102;48.542;-2.970;2023-05-10T04:05:45;17.98;;;3.63;;
77136;SDS011;66102;48.542;-2.970;2023-05-10T04:08:11;16.75;;;3.33;;
77136;SDS011;66102;48.542;-2.970;2023-05-10T04:10:37;19.70;;;3.08;;
77136;SDS011;66102;48.542;-2.970;2023-05-10T04:13:03;18.90;;;3.92;;
77136;SDS011;66102;48.542;-2.970;2023-05-10T04:15:29;19.10;;;4.43;;
77136;SDS011;66102;48.542;-2.970;2023-05-10T04:17:55;15.77;;;2.90;;
77136;SDS011;66102;48.542;-2.970;2023-05-10T04:20:21;15.40;;;3.28;;
77136;SDS011;66102;48.542;-2.970;2023-05-10T04:22:47;13.07;;;2.92;;
77136;SDS011;66102;48.542;-2.970;2023-05-10T04:25:13;16.92;;;3.00;;
77136;SDS011;66102;48.542;-2.970;2023-05-10T04:27:39;13.48;;;3.05;;
77136;SDS011;66102;48.542;-2.970;2023-05-10T04:30:06;16.13;;;2.83;;
77136;SDS011;66102;48.542;-2.970;2023-05-10T04:32:32;14.90;;;3.10;;
77136;SDS011;66102;48.542;-2.970;2023-05-10T04:34:58;15.88;;;2.88;;
77136;SDS011;66102;48.542;-2.970;2023-05-10T04:37:24;14.95;;;2.60;;
77136;SDS011;66102;48.542;-2.970;2023-05-10T04:39:50;19.10;;;3.53;;
77136;SDS011;66102;48.542;-2.970;2023-05-10T04:42:16;15.32;;;3.90;;
77136;SDS011;66102;48.542;-2.970;2023-05-10T04:44:42;19.13;;;3.13;;
77136;SDS011;66102;48.542;-2.970;2023-05-10T04:47:08;16.60;;;3.92;;
77136;SDS011;66102;48.542;-2.970;2023-05-10T04:49:34;18.65;;;2.80;;
77136;SDS011;66102;48.542;-2.970;2023-05-10T04:52:00;19.88;;;3.28;;
77136;SDS011;66102;48.542;-2.970;2023-05-10T04:54:26;17.33;;;3.25;;
77136;SDS011;66102;48.542;-2.970;2023-05-10T04:56:52;25.05;;;2.95;;
77136;SDS011;66102;48.542;-2.970;2023-05-10T04:59:18;15.60;;;2.70;;
77136;SDS011;66102;48.542;-2.970;2023-05-10T05:01:44;18.95;;;2.83;;
77136;SDS011;66102;48.542;-2.970;2023-05-10T05:04:10;20.75;;;3.30;;
77136;SDS011;66102;48.542;-2.970;2023-05-10T05:06:36;21.55;;;3.88;;
77136;SDS011;66102;48.542;-2.970;2023-05-10T05:09:02;18.38;;;3.63;;
77136;SDS011;66102;48.542;-2.970;2023-05-10T05:11:28;20.80;;;4.22;;
77136;SDS011;66102;48.542;-2.970;2023-05-10T05:13:54;18.90;;;3.78;;
77136;SDS011;66102;48.542;-2.970;2023-05-10T05:16:21;15.52;;;3.50;;
77136;SDS011;66102;48.542;-2.970;2023-05-10T05:18:47;17.17;;;3.47;;
77136;SDS011;66102;48.542;-2.970;2023-05-10T05:21:13;14.40;;;2.92;;
77136;SDS011;66102;48.542;-2.970;2023-05-10T05:23:40;15.23;;;2.72;;
77136;SDS011;66102;48.542;-2.970;2023-05-10T05:26:06;22.25;;;3.72;;
77136;SDS011;66102;48.542;-2.970;2023-05-10T05:28:32;27.42;;;3.72;;
77136;SDS011;66102;48.542;-2.970;2023-05-10T05:31:02;15.13;;;3.17;;
77136;SDS011;66102;48.542;-2.970;2023-05-10T05:33:28;15.23;;;3.15;;
77136;SDS011;66102;48.542;-2.970;2023-05-10T05:35:54;10.98;;;2.53;;
77136;SDS011;66102;48.542;-2.970;2023-05-10T05:38:20;19.88;;;3.63;;
77136;SDS011;66102;48.542;-2.970;2023-05-10T05:40:46;14.00;;;2.90;;
77136;SDS011;66102;48.542;-2.970;2023-05-10T05:43:12;13.70;;;2.60;;
77136;SDS011;66102;48.542;-2.970;2023-05-10T05:45:38;13.52;;;3.40;;
77136;SDS011;66102;48.542;-2.970;2023-05-10T05:48:04;15.05;;;2.83;;
77136;SDS011;66102;48.542;-2.970;2023-05-10T05:50:30;13.65;;;2.75;;
77136;SDS011;66102;48.542;-2.970;2023-05-10T05:52:56;10.35;;;2.03;;
77136;SDS011;66102;48.542;-2.970;2023-05-10T05:55:22;14.35;;;2.75;;
77136;SDS011;66102;48.542;-2.970;2023-05-10T05:57:50;13.05;;;2.80;;
77136;SDS011;66102;48.542;-2.970;2023-05-10T06:00:16;14.50;;;2.45;;
77136;SDS011;66102;48.542;-2.970;2023-05-10T06:02:43;12.63;;;2.97;;
77136;SDS011;66102;48.542;-2.970;2023-05-10T06:05:09;17.65;;;3.10;;
77136;SDS011;66102;48.542;-2.970;2023-05-10T06:07:35;13.73;;;2.90;;
77136;SDS011;66102;48.542;-2.970;2023-05-10T06:10:01;13.52;;;2.92;;
77136;SDS011;66102;48.542;-2.970;2023-05-10T06:12:27;14.05;;;2.80;;
77136;SDS011;66102;48.542;-2.970;2023-05-10T06:14:53;16.10;;;3.42;;
77136;SDS011;66102;48.542;-2.970;2023-05-10T06:17:19;17.83;;;4.35;;
77136;SDS011;66102;48.542;-2.970;2023-05-10T06:19:46;13.57;;;3.35;;
77136;SDS011;66102;48.542;-2.970;2023-05-10T06:22:12;17.30;;;3.08;;
77136;SDS011;66102;48.542;-2.970;2023-05-10T06:24:38;13.68;;;2.88;;
77136;SDS011;66102;48.542;-2.970;2023-05-10T06:27:05;11.73;;;2.55;;
77136;SDS011;66102;48.542;-2.970;2023-05-10T06:29:32;12.27;;;2.80;;
77136;SDS011;66102;48.542;-2.970;2023-05-10T06:31:58;12.48;;;2.70;;
77136;SDS011;66102;48.542;-2.970;2023-05-10T06:34:24;17.88;;;3.00;;
77136;SDS011;66102;48.542;-2.970;2023-05-10T06:36:50;15.45;;;2.88;;
77136;SDS011;66102;48.542;-2.970;2023-05-10T06:39:16;16.50;;;2.65;;
77136;SDS011;66102;48.542;-2.970;2023-05-10T06:41:42;23.98;;;3.55;;
77136;SDS011;66102;48.542;-2.970;2023-05-10T06:44:09;15.63;;;2.55;;
77136;SDS011;66102;48.542;-2.970;2023-05-10T06:46:35;18.10;;;2.72;;
77136;SDS011;66102;48.542;-2.970;2023-05-10T06:49:01;11.57;;;2.35;;
77136;SDS011;66102;48.542;-2.970;2023-05-10T06:51:27;16.27;;;3.60;;
77136;SDS011;66102;48.542;-2.970;2023-05-10T06:53:53;21.52;;;3.10;;
77136;SDS011;66102;48.542;-2.970;2023-05-10T06:56:19;19.45;;;3.90;;
77136;SDS011;66102;48.542;-2.970;2023-05-10T06:58:47;20.25;;;3.50;;
77136;SDS011;66102;48.542;-2.970;2023-05-10T07:01:13;18.45;;;3.88;;
77136;SDS011;66102;48.542;-2.970;2023-05-10T07:03:39;18.45;;;3.13;;
77136;SDS011;66102;48.542;-2.970;2023-05-10T07:06:05;13.27;;;3.67;;
77136;SDS011;66102;48.542;-2.970;2023-05-10T07:08:32;17.48;;;3.20;;
77136;SDS011;66102;48.542;-2.970;2023-05-10T07:10:59;16.45;;;3.35;;
77136;SDS011;66102;48.542;-2.970;2023-05-10T07:13:25;15.52;;;3.05;;
77136;SDS011;66102;48.542;-2.970;2023-05-10T07:15:51;18.38;;;3.60;;
77136;SDS011;66102;48.542;-2.970;2023-05-10T07:18:17;15.88;;;3.05;;
77136;SDS011;66102;48.542;-2.970;2023-05-10T07:20:43;15.13;;;2.75;;
77136;SDS011;66102;48.542;-2.970;2023-05-10T07:23:09;14.35;;;3.28;;
77136;SDS011;66102;48.542;-2.970;2023-05-10T07:25:35;14.20;;;3.17;;
77136;SDS011;66102;48.542;-2.970;2023-05-10T07:28:02;13.02;;;2.65;;
77136;SDS011;66102;48.542;-2.970;2023-05-10T07:30:28;16.00;;;2.63;;
77136;SDS011;66102;48.542;-2.970;2023-05-10T07:32:54;12.40;;;2.40;;
77136;SDS011;66102;48.542;-2.970;2023-05-10T07:35:20;16.33;;;2.67;;
77136;SDS011;66102;48.542;-2.970;2023-05-10T07:37:46;13.70;;;3.08;;
77136;SDS011;66102;48.542;-2.970;2023-05-10T07:40:12;13.68;;;2.80;;
77136;SDS011;66102;48.542;-2.970;2023-05-10T07:42:38;9.25;;;2.97;;
77136;SDS011;66102;48.542;-2.970;2023-05-10T07:45:05;13.95;;;3.45;;
77136;SDS011;66102;48.542;-2.970;2023-05-10T07:47:31;10.02;;;2.20;;
77136;SDS011;66102;48.542;-2.970;2023-05-10T07:49:57;11.90;;;2.65;;
77136;SDS011;66102;48.542;-2.970;2023-05-10T07:52:23;16.05;;;2.65;;
77136;SDS011;66102;48.542;-2.970;2023-05-10T07:54:49;15.30;;;2.70;;
77136;SDS011;66102;48.542;-2.970;2023-05-10T07:57:15;10.43;;;2.63;;
77136;SDS011;66102;48.542;-2.970;2023-05-10T07:59:42;10.57;;;2.00;;
77136;SDS011;66102;48.542;-2.970;2023-05-10T08:02:09;12.40;;;2.47;;
77136;SDS011;66102;48.542;-2.970;2023-05-10T08:04:35;11.13;;;2.15;;
77136;SDS011;66102;48.542;-2.970;2023-05-10T08:07:01;11.73;;;2.20;;
77136;SDS011;66102;48.542;-2.970;2023-05-10T08:09:28;8.32;;;1.75;;
77136;SDS011;66102;48.542;-2.970;2023-05-10T08:11:54;15.27;;;2.00;;
77136;SDS011;66102;48.542;-2.970;2023-05-10T08:14:21;12.63;;;2.50;;
77136;SDS011;66102;48.542;-2.970;2023-05-10T08:16:47;9.18;;;2.17;;
77136;SDS011;66102;48.542;-2.970;2023-05-10T08:19:13;12.70;;;2.13;;
77136;SDS011;66102;48.542;-2.970;2023-05-10T08:21:39;10.48;;;2.10;;
77136;SDS011;66102;48.542;-2.970;2023-05-10T08:24:07;8.35;;;1.88;;
77136;SDS011;66102;48.542;-2.970;2023-05-10T08:26:33;11.32;;;1.70;;
77136;SDS011;66102;48.542;-2.970;2023-05-10T08:28:59;11.80;;;2.20;;
77136;SDS011;66102;48.542;-2.970;2023-05-10T08:31:25;8.35;;;1.60;;
77136;SDS011;66102;48.542;-2.970;2023-05-10T08:33:51;12.40;;;2.33;;
77136;SDS011;66102;48.542;-2.970;2023-05-10T08:36:17;12.50;;;2.45;;
77136;SDS011;66102;48.542;-2.970;2023-05-10T08:38:52;10.52;;;2.65;;
77136;SDS011;66102;48.542;-2.970;2023-05-10T08:41:21;10.45;;;1.77;;
77136;SDS011;66102;48.542;-2.970;2023-05-10T08:43:49;8.60;;;2.10;;
77136;SDS011;66102;48.542;-2.970;2023-05-10T08:46:16;10.13;;;1.75;;
77136;SDS011;66102;48.542;-2.970;2023-05-10T08:48:44;8.50;;;1.80;;
77136;SDS011;66102;48.542;-2.970;2023-05-10T08:51:12;8.90;;;1.73;;
77136;SDS011;66102;48.542;-2.970;2023-05-10T08:53:38;10.13;;;2.20;;
77136;SDS011;66102;48.542;-2.970;2023-05-10T08:56:04;8.98;;;2.10;;
77136;SDS011;66102;48.542;-2.970;2023-05-10T08:58:31;10.75;;;2.28;;
77136;SDS011;66102;48.542;-2.970;2023-05-10T09:00:57;7.75;;;1.75;;
77136;SDS011;66102;48.542;-2.970;2023-05-10T09:03:23;12.02;;;1.73;;
77136;SDS011;66102;48.542;-2.970;2023-05-10T09:05:49;9.23;;;2.13;;
77136;SDS011;66102;48.542;-2.970;2023-05-10T09:08:15;11.20;;;2.08;;
77136;SDS011;66102;48.542;-2.970;2023-05-10T09:10:42;9.93;;;1.60;;
77136;SDS011;66102;48.542;-2.970;2023-05-10T09:13:09;12.10;;;2.42;;
77136;SDS011;66102;48.542;-2.970;2023-05-10T09:15:35;6.95;;;1.92;;
77136;SDS011;66102;48.542;-2.970;2023-05-10T09:18:01;9.05;;;1.75;;
77136;SDS011;66102;48.542;-2.970;2023-05-10T09:20:27;7.00;;;1.92;;
77136;SDS011;66102;48.542;-2.970;2023-05-10T09:22:53;10.63;;;1.73;;
77136;SDS011;66102;48.542;-2.970;2023-05-10T09:25:20;8.57;;;1.52;;
77136;SDS011;66102;48.542;-2.970;2023-05-10T09:27:47;6.78;;;1.48;;
77136;SDS011;66102;48.542;-2.970;2023-05-10T09:30:17;13.07;;;1.88;;
77136;SDS011;66102;48.542;-2.970;2023-05-10T09:32:44;9.55;;;1.55;;
77136;SDS011;66102;48.542;-2.970;2023-05-10T09:35:11;9.73;;;1.63;;
77136;SDS011;66102;48.542;-2.970;2023-05-10T09:37:40;10.25;;;1.65;;
77136;SDS011;66102;48.542;-2.970;2023-05-10T09:40:07;8.70;;;1.73;;
77136;SDS011;66102;48.542;-2.970;2023-05-10T09:42:34;10.63;;;1.50;;
77136;SDS011;66102;48.542;-2.970;2023-05-10T09:45:01;7.90;;;1.52;;
77136;SDS011;66102;48.542;-2.970;2023-05-10T09:47:28;9.77;;;1.92;;
77136;SDS011;66102;48.542;-2.970;2023-05-10T09:49:56;8.23;;;1.70;;
77136;SDS011;66102;48.542;-2.970;2023-05-10T09:52:28;9.80;;;1.95;;
77136;SDS011;66102;48.542;-2.970;2023-05-10T09:54:54;10.25;;;1.70;;
77136;SDS011;66102;48.542;-2.970;2023-05-10T09:57:20;9.48;;;2.17;;
77136;SDS011;66102;48.542;-2.970;2023-05-10T09:59:47;10.05;;;1.83;;
77136;SDS011;66102;48.542;-2.970;2023-05-10T10:02:14;16.08;;;3.75;;
77136;SDS011;66102;48.542;-2.970;2023-05-10T10:04:40;14.68;;;2.70;;
77136;SDS011;66102;48.542;-2.970;2023-05-10T10:07:07;8.75;;;2.00;;
77136;SDS011;66102;48.542;-2.970;2023-05-10T10:09:33;10.52;;;2.17;;
77136;SDS011;66102;48.542;-2.970;2023-05-10T10:12:00;10.60;;;1.73;;
77136;SDS011;66102;48.542;-2.970;2023-05-10T10:14:27;11.88;;;2.03;;
77136;SDS011;66102;48.542;-2.970;2023-05-10T10:16:53;11.43;;;2.08;;
77136;SDS011;66102;48.542;-2.970;2023-05-10T10:19:19;8.13;;;1.80;;
77136;SDS011;66102;48.542;-2.970;2023-05-10T10:21:49;11.27;;;1.58;;
77136;SDS011;66102;48.542;-2.970;2023-05-10T10:24:15;13.55;;;2.10;;
77136;SDS011;66102;48.542;-2.970;2023-05-10T10:26:41;7.03;;;1.88;;
77136;SDS011;66102;48.542;-2.970;2023-05-10T10:32:10;5.80;;;1.33;;
77136;SDS011;66102;48.542;-2.970;2023-05-10T10:34:38;9.07;;;1.92;;
77136;SDS011;66102;48.542;-2.970;2023-05-10T10:37:05;7.38;;;1.48;;
77136;SDS011;66102;48.542;-2.970;2023-05-10T10:39:31;7.35;;;1.83;;
77136;SDS011;66102;48.542;-2.970;2023-05-10T10:41:58;11.40;;;1.90;;
77136;SDS011;66102;48.542;-2.970;2023-05-10T10:44:25;8.45;;;1.52;;
77136;SDS011;66102;48.542;-2.970;2023-05-10T10:49:21;6.72;;;1.60;;
77136;SDS011;66102;48.542;-2.970;2023-05-10T10:54:32;8.07;;;1.77;;
77136;SDS011;66102;48.542;-2.970;2023-05-10T10:57:19;9.85;;;2.13;;
77136;SDS011;66102;48.542;-2.970;2023-05-10T10:59:46;10.00;;;1.60;;
77136;SDS011;66102;48.542;-2.970;2023-05-10T11:04:57;8.25;;;1.30;;
77136;SDS011;66102;48.542;-2.970;2023-05-10T11:07:24;5.55;;;1.00;;
77136;SDS011;66102;48.542;-2.970;2023-05-10T11:09:50;4.60;;;1.10;;
77136;SDS011;66102;48.542;-2.970;2023-05-10T11:12:16;3.22;;;0.80;;
77136;SDS011;66102;48.542;-2.970;2023-05-10T11:14:42;4.45;;;0.85;;
77136;SDS011;66102;48.542;-2.970;2023-05-10T11:17:24;3.60;;;1.20;;
77136;SDS011;66102;48.542;-2.970;2023-05-10T11:20:09;8.82;;;1.25;;
77136;SDS011;66102;48.542;-2.970;2023-05-10T11:22:50;11.15;;;1.75;;
77136;SDS011;66102;48.542;-2.970;2023-05-10T11:25:17;4.72;;;1.23;;
77136;SDS011;66102;48.542;-2.970;2023-05-10T11:27:43;8.07;;;1.42;;
77136;SDS011;66102;48.542;-2.970;2023-05-10T11:30:13;7.03;;;1.20;;
77136;SDS011;66102;48.542;-2.970;2023-05-10T11:32:40;5.97;;;1.45;;
77136;SDS011;66102;48.542;-2.970;2023-05-10T11:35:09;8.85;;;2.03;;
77136;SDS011;66102;48.542;-2.970;2023-05-10T11:37:35;5.38;;;1.35;;
77136;SDS011;66102;48.542;-2.970;2023-05-10T11:40:03;10.43;;;2.00;;
77136;SDS011;66102;48.542;-2.970;2023-05-10T11:42:29;9.70;;;1.80;;
77136;SDS011;66102;48.542;-2.970;2023-05-10T11:44:55;9.52;;;1.77;;
77136;SDS011;66102;48.542;-2.970;2023-05-10T11:47:21;6.90;;;1.60;;
77136;SDS011;66102;48.542;-2.970;2023-05-10T11:49:47;7.55;;;1.20;;
77136;SDS011;66102;48.542;-2.970;2023-05-10T11:52:14;5.63;;;1.42;;
77136;SDS011;66102;48.542;-2.970;2023-05-10T11:54:52;9.27;;;1.92;;
77136;SDS011;66102;48.542;-2.970;2023-05-10T11:57:19;9.50;;;1.65;;
77136;SDS011;66102;48.542;-2.970;2023-05-10T11:59:46;7.47;;;1.50;;
77136;SDS011;66102;48.542;-2.970;2023-05-10T12:02:15;12.25;;;1.95;;
77136;SDS011;66102;48.542;-2.970;2023-05-10T12:04:41;7.63;;;1.55;;
77136;SDS011;66102;48.542;-2.970;2023-05-10T12:07:07;8.88;;;1.90;;
77136;SDS011;66102;48.542;-2.970;2023-05-10T12:09:33;9.45;;;1.42;;
77136;SDS011;66102;48.542;-2.970;2023-05-10T12:11:59;9.05;;;1.92;;
77136;SDS011;66102;48.542;-2.970;2023-05-10T12:14:25;6.18;;;1.25;;
77136;SDS011;66102;48.542;-2.970;2023-05-10T12:16:53;7.40;;;1.38;;
77136;SDS011;66102;48.542;-2.970;2023-05-10T12:19:19;8.55;;;1.92;;
77136;SDS011;66102;48.542;-2.970;2023-05-10T12:21:46;7.18;;;1.42;;
77136;SDS011;66102;48.542;-2.970;2023-05-10T12:24:12;8.68;;;1.48;;
77136;SDS011;66102;48.542;-2.970;2023-05-10T12:26:41;5.32;;;1.42;;
77136;SDS011;66102;48.542;-2.970;2023-05-10T12:29:14;8.80;;;1.40;;
77136;SDS011;66102;48.542;-2.970;2023-05-10T12:34:49;6.75;;;1.80;;
77136;SDS011;66102;48.542;-2.970;2023-05-10T12:37:08;6.72;;;1.42;;
77136;SDS011;66102;48.542;-2.970;2023-05-10T12:39:38;9.40;;;1.45;;
77136;SDS011;66102;48.542;-2.970;2023-05-10T12:42:04;7.15;;;1.85;;
77136;SDS011;66102;48.542;-2.970;2023-05-10T12:44:31;10.20;;;1.63;;
77136;SDS011;66102;48.542;-2.970;2023-05-10T12:46:57;9.85;;;1.95;;
77136;SDS011;66102;48.542;-2.970;2023-05-10T12:49:23;5.00;;;1.40;;
77136;SDS011;66102;48.542;-2.970;2023-05-10T12:51:49;6.80;;;1.88;;
77136;SDS011;66102;48.542;-2.970;2023-05-10T12:54:15;12.65;;;1.88;;
77136;SDS011;66102;48.542;-2.970;2023-05-10T12:56:41;7.93;;;1.70;;
77136;SDS011;66102;48.542;-2.970;2023-05-10T12:59:07;8.30;;;1.42;;
77136;SDS011;66102;48.542;-2.970;2023-05-10T13:01:33;7.82;;;1.52;;
77136;SDS011;66102;48.542;-2.970;2023-05-10T13:03:59;8.02;;;1.63;;
77136;SDS011;66102;48.542;-2.970;2023-05-10T13:06:25;10.82;;;1.90;;
77136;SDS011;66102;48.542;-2.970;2023-05-10T13:08:51;8.13;;;1.42;;
77136;SDS011;66102;48.542;-2.970;2023-05-10T13:11:17;8.40;;;1.70;;
77136;SDS011;66102;48.542;-2.970;2023-05-10T13:13:44;8.10;;;1.55;;
77136;SDS011;66102;48.542;-2.970;2023-05-10T13:16:10;10.77;;;1.88;;
77136;SDS011;66102;48.542;-2.970;2023-05-10T13:18:36;10.45;;;1.70;;
77136;SDS011;66102;48.542;-2.970;2023-05-10T13:21:03;6.45;;;1.58;;
77136;SDS011;66102;48.542;-2.970;2023-05-10T13:23:30;5.78;;;1.45;;
77136;SDS011;66102;48.542;-2.970;2023-05-10T13:25:56;8.88;;;1.73;;
77136;SDS011;66102;48.542;-2.970;2023-05-10T13:28:22;6.97;;;1.50;;
77136;SDS011;66102;48.542;-2.970;2023-05-10T13:30:48;7.57;;;1.75;;
77136;SDS011;66102;48.542;-2.970;2023-05-10T13:33:14;5.82;;;1.63;;
77136;SDS011;66102;48.542;-2.970;2023-05-10T13:35:40;6.75;;;1.27;;
77136;SDS011;66102;48.542;-2.970;2023-05-10T13:38:06;6.22;;;1.30;;
77136;SDS011;66102;48.542;-2.970;2023-05-10T13:40:33;8.55;;;1.42;;
77136;SDS011;66102;48.542;-2.970;2023-05-10T13:42:59;8.60;;;1.83;;
77136;SDS011;66102;48.542;-2.970;2023-05-10T13:45:25;8.55;;;1.38;;
77136;SDS011;66102;48.542;-2.970;2023-05-10T13:47:51;6.63;;;1.13;;
77136;SDS011;66102;48.542;-2.970;2023-05-10T13:50:17;8.32;;;1.88;;
77136;SDS011;66102;48.542;-2.970;2023-05-10T13:52:43;8.25;;;1.30;;
77136;SDS011;66102;48.542;-2.970;2023-05-10T13:55:09;6.40;;;1.30;;
77136;SDS011;66102;48.542;-2.970;2023-05-10T13:57:37;7.72;;;1.20;;
77136;SDS011;66102;48.542;-2.970;2023-05-10T14:00:03;5.32;;;1.45;;
77136;SDS011;66102;48.542;-2.970;2023-05-10T14:02:29;7.50;;;1.42;;
77136;SDS011;66102;48.542;-2.970;2023-05-10T14:04:56;8.63;;;1.52;;
77136;SDS011;66102;48.542;-2.970;2023-05-10T14:07:22;6.50;;;1.38;;
77136;SDS011;66102;48.542;-2.970;2023-05-10T14:09:48;4.85;;;1.40;;
77136;SDS011;66102;48.542;-2.970;2023-05-10T14:12:15;6.80;;;1.17;;
77136;SDS011;66102;48.542;-2.970;2023-05-10T14:14:41;6.45;;;1.30;;
77136;SDS011;66102;48.542;-2.970;2023-05-10T14:17:07;5.50;;;1.20;;
77136;SDS011;66102;48.542;-2.970;2023-05-10T14:19:33;6.47;;;1.48;;
77136;SDS011;66102;48.542;-2.970;2023-05-10T14:22:00;5.00;;;1.35;;
77136;SDS011;66102;48.542;-2.970;2023-05-10T14:24:26;5.38;;;1.30;;
77136;SDS011;66102;48.542;-2.970;2023-05-10T14:26:52;7.78;;;1.23;;
77136;SDS011;66102;48.542;-2.970;2023-05-10T14:29:19;10.07;;;1.20;;
77136;SDS011;66102;48.542;-2.970;2023-05-10T14:31:45;4.93;;;1.02;;
77136;SDS011;66102;48.542;-2.970;2023-05-10T14:34:11;6.65;;;1.17;;
77136;SDS011;66102;48.542;-2.970;2023-05-10T14:36:37;4.75;;;0.90;;
77136;SDS011;66102;48.542;-2.970;2023-05-10T14:39:04;6.60;;;1.08;;
77136;SDS011;66102;48.542;-2.970;2023-05-10T14:41:31;9.75;;;1.73;;
77136;SDS011;66102;48.542;-2.970;2023-05-10T14:43:57;4.07;;;1.10;;
77136;SDS011;66102;48.542;-2.970;2023-05-10T14:46:24;5.82;;;1.13;;
77136;SDS011;66102;48.542;-2.970;2023-05-10T14:48:51;5.68;;;1.25;;
77136;SDS011;66102;48.542;-2.970;2023-05-10T14:51:18;7.20;;;1.85;;
77136;SDS011;66102;48.542;-2.970;2023-05-10T14:53:46;4.18;;;0.90;;